CST,Max TemperatureF,Mean TemperatureF,Min TemperatureF,Max Dew PointF,MeanDew PointF,Min DewpointF,Max Humidity, Mean Humidity, Min Humidity, Max Sea Level PressureIn, Mean Sea Level PressureIn, Min Sea Level PressureIn, Max VisibilityMiles, Mean VisibilityMiles, Min VisibilityMiles, Max Wind SpeedMPH, Mean Wind SpeedMPH, Max Gust SpeedMPH,PrecipitationIn, CloudCover, Events, WindDirDegrees
2013-1-1,19,0,-18,18,0,-24,100,87,76,30.20,30.07,29.90,10,9,4,10,2,,0.00,6,Snow,199
2013-1-2,21,16,10,19,14,9,100,92,79,30.09,29.92,29.85,10,7,2,16,6,17,0.00,8,Snow,235
2013-1-3,17,8,-2,12,6,-6,92,85,78,30.21,30.11,29.93,10,10,10,17,10,24,0.00,4,Snow,264
2013-1-4,26,16,5,16,11,3,100,82,64,30.06,30.00,29.91,10,10,2,15,6,20,0.00,0,,271
2013-1-5,19,8,-2,18,7,-6,100,90,85,30.03,29.93,29.83,10,9,0,14,2,,0.00,2,Fog-Snow,304
2013-1-6,17,12,6,12,9,3,100,89,73,30.16,30.06,29.82,10,10,7,12,7,17,0.00,4,Snow,231
2013-1-7,33,22,10,25,18,10,100,82,64,29.90,29.81,29.73,10,10,10,14,7,18,0.00,0,,220
2013-1-8,30,16,3,27,17,1,100,90,74,29.90,29.79,29.66,10,10,2,17,2,25,0.00,3,,220
2013-1-9,32,26,21,27,19,16,93,78,64,30.27,30.08,29.78,10,10,5,33,13,41,0.00,4,,249
2013-1-10,41,32,23,30,24,18,100,74,45,30.14,29.95,29.63,10,9,4,22,12,30,0.04,3,Rain,160
2013-1-11,33,32,28,34,32,28,100,100,100,29.62,29.44,29.30,10,2,0,14,3,16,0.29,8,Fog-Rain-Snow,162
2013-1-12,26,12,-4,27,2,-9,100,82,72,30.05,29.75,29.31,10,8,2,22,15,28,0.00,5,Snow,282
2013-1-13,6,-2,-9,1,-6,-13,92,81,67,30.15,30.08,30.02,10,10,5,12,7,,0.00,3,Snow,293
2013-1-14,6,1,-4,1,-2,-8,92,79,67,30.31,30.24,30.16,10,10,10,12,6,,0.00,5,Snow,232
2013-1-15,21,11,1,14,6,0,100,77,50,30.17,29.98,29.62,10,10,5,15,8,21,0.00,5,Snow,189
2013-1-16,30,15,0,28,7,-11,100,71,35,30.24,29.84,29.55,10,9,2,18,12,26,0.00,4,Snow,301
2013-1-17,12,5,-2,3,-2,-11,85,73,56,30.32,30.27,30.17,10,9,2,12,5,,0.00,5,Snow,274
2013-1-18,26,17,8,21,14,5,100,88,74,30.16,29.81,29.68,10,9,1,9,3,,0.01,5,Snow,139
2013-1-19,28,10,-7,27,8,-13,100,86,66,30.23,29.85,29.63,10,6,1,33,9,44,0.00,5,Snow,294
2013-1-20,1,-6,-13,-6,-13,-20,84,74,65,30.32,30.26,30.21,10,9,2,20,9,25,0.00,3,Snow,292
2013-1-21,-9,-14,-20,-18,-22,-26,84,72,59,30.26,30.23,30.19,10,10,7,15,7,21,0.00,0,,288
2013-1-22,0,-12,-25,-6,-18,-29,84,74,60,30.29,30.23,30.14,10,10,7,5,0,,0.00,3,,280
2013-1-23,3,-6,-16,1,-11,-24,92,71,50,30.57,30.27,30.08,10,8,2,24,6,31,0.00,4,Snow,327
2013-1-24,5,-6,-16,0,-14,-24,84,70,55,30.59,30.38,30.03,10,10,10,16,4,21,0.00,5,Snow,143
2013-1-25,12,2,-9,7,-3,-15,92,76,66,30.28,30.04,29.84,10,9,2,22,12,31,0.00,4,Snow,282
2013-1-26,14,2,-11,7,-3,-17,85,76,62,30.27,30.16,30.03,10,10,10,12,3,16,0.00,3,,137
2013-1-27,30,21,12,27,17,7,100,78,64,30.02,29.87,29.78,10,9,4,7,2,,0.00,4,,138
2013-1-28,32,29,26,30,29,27,100,100,93,29.82,29.77,29.64,5,2,0,6,0,,0.14,8,Fog-Rain-Snow,170
2013-1-29,30,24,19,30,24,16,100,92,80,29.80,29.66,29.55,10,7,1,16,5,20,0.08,8,Rain-Snow,329
2013-1-30,17,8,-2,14,3,-6,93,81,73,29.79,29.73,29.70,10,8,2,17,14,23,0.00,8,Snow,318
2013-1-31,-2,-10,-18,-8,-14,-24,84,74,64,30.21,30.00,29.76,10,8,2,22,15,26,0.00,4,Snow,304